Time;durP1;ratioP1;P1;durP2;ratioP2;P2;SDS_P1;SDS_P2;PMS_P1;PMS_P2;Temp;Humidity;BMP_temperature;BMP_pressure;BME280_temperature;BME280_humidity;BME280_pressure;Samples;Min_cycle;Max_cycle;Signal;HPM_P1;HPM_P2
2023/04/05 00:01:33;;;;;;;19.03;9.33;;;5.00;1.00;;;;;;5096465;28;20168;-68
2023/04/05 00:03:59;;;;;;;17.40;9.97;;;4.80;1.00;;;;;;5096265;28;20169;-68
2023/04/05 00:06:29;;;;;;;16.63;9.73;;;4.70;1.00;;;;;;5095267;28;20176;-67
2023/04/05 00:08:56;;;;;;;18.27;9.47;;;4.70;1.00;;;;;;5095677;28;20183;-67
2023/04/05 00:11:22;;;;;;;21.87;9.83;;;4.70;1.00;;;;;;5096167;28;20258;-68
2023/04/05 00:13:47;;;;;;;23.67;9.90;;;4.70;1.00;;;;;;5096144;28;20198;-67
2023/04/05 00:16:15;;;;;;;21.00;9.87;;;4.60;1.00;;;;;;5095890;28;20211;-67
2023/04/05 00:18:50;;;;;;;17.60;10.63;;;4.60;1.00;;;;;;5096143;28;20200;-67
2023/04/05 00:21:23;;;;;;;15.93;9.63;;;4.60;1.00;;;;;;5095155;28;20160;-68
2023/04/05 00:23:53;;;;;;;17.33;10.17;;;4.50;1.00;;;;;;5095491;28;20168;-67
2023/04/05 00:26:20;;;;;;;13.80;9.50;;;4.50;1.00;;;;;;5095968;28;20225;-68
2023/04/05 00:28:49;;;;;;;13.23;9.20;;;4.50;1.00;;;;;;5095700;28;20187;-68
2023/04/05 00:31:18;;;;;;;14.67;10.57;;;4.50;1.00;;;;;;5095857;28;20201;-69
2023/04/05 00:33:45;;;;;;;17.57;12.43;;;4.40;1.00;;;;;;5095684;28;20221;-67
2023/04/05 00:36:15;;;;;;;18.20;11.33;;;4.40;1.00;;;;;;5095273;28;20250;-68
2023/04/05 00:38:42;;;;;;;18.30;10.70;;;4.40;1.00;;;;;;5095208;28;20670;-69
2023/04/05 00:41:09;;;;;;;16.93;11.33;;;4.40;1.00;;;;;;5095605;28;20167;-68
2023/04/05 00:43:35;;;;;;;16.47;10.20;;;4.40;1.00;;;;;;5095516;28;20214;-68
2023/04/05 00:46:01;;;;;;;15.03;10.70;;;4.40;1.00;;;;;;5095400;28;20156;-68
2023/04/05 00:48:28;;;;;;;18.33;13.60;;;4.40;1.00;;;;;;5095268;28;20191;-68
2023/04/05 00:50:54;;;;;;;26.30;16.13;;;4.40;1.00;;;;;;5095354;28;20317;-68
2023/04/05 00:53:20;;;;;;;19.53;13.00;;;4.50;1.00;;;;;;5095099;28;20183;-68
2023/04/05 00:55:47;;;;;;;16.90;11.00;;;4.50;1.00;;;;;;5095244;28;20243;-68
2023/04/05 00:58:21;;;;;;;17.87;10.97;;;4.60;1.00;;;;;;5094993;28;20207;-68
2023/04/05 01:01:00;;;;;;;20.30;11.97;;;4.60;1.00;;;;;;5095108;28;20163;-68
2023/04/05 01:03:28;;;;;;;15.93;11.10;;;4.60;1.00;;;;;;5095107;28;20176;-68
2023/04/05 01:06:06;;;;;;;17.20;11.50;;;4.60;1.00;;;;;;5094821;28;20182;-68
2023/04/05 01:08:50;;;;;;;14.03;10.40;;;4.60;1.00;;;;;;5094973;28;20172;-68
2023/04/05 01:11:17;;;;;;;16.80;11.30;;;4.70;1.00;;;;;;5094886;28;20164;-68
2023/04/05 01:13:46;;;;;;;15.93;11.47;;;4.60;1.00;;;;;;5094927;28;20168;-67
2023/04/05 01:16:15;;;;;;;14.93;10.83;;;4.60;1.00;;;;;;5094514;28;20175;-67
2023/04/05 01:18:45;;;;;;;17.73;11.80;;;4.60;1.00;;;;;;5094714;28;20204;-67
2023/04/05 01:21:33;;;;;;;18.33;11.20;;;4.60;1.00;;;;;;5094745;28;20172;-67
2023/04/05 01:24:29;;;;;;;17.30;10.93;;;4.50;1.00;;;;;;5094815;28;20168;-67
2023/04/05 01:27:13;;;;;;;18.23;10.73;;;4.40;1.00;;;;;;5094602;28;20192;-66
2023/04/05 01:29:55;;;;;;;15.53;10.13;;;4.20;1.00;;;;;;5094561;28;20164;-67
2023/04/05 01:33:02;;;;;;;16.03;10.40;;;4.20;1.00;;;;;;5094642;28;20160;-67
2023/04/05 01:35:48;;;;;;;17.27;10.37;;;4.20;1.00;;;;;;5094168;28;20223;-67
2023/04/05 01:38:18;;;;;;;23.53;11.83;;;4.20;1.00;;;;;;5094188;28;20212;-68
2023/04/05 01:40:44;;;;;;;17.10;11.10;;;4.10;1.00;;;;;;5094512;28;20188;-67
2023/04/05 01:43:14;;;;;;;21.23;11.50;;;4.10;1.00;;;;;;5094384;28;20187;-67
2023/04/05 01:45:44;;;;;;;17.67;11.23;;;3.90;1.00;;;;;;5094295;28;20172;-68
2023/04/05 01:48:10;;;;;;;21.17;11.90;;;4.00;1.00;;;;;;5094102;28;20681;-68
2023/04/05 01:50:36;;;;;;;23.20;12.07;;;4.00;1.00;;;;;;5092526;28;20259;-68
2023/04/05 01:53:01;;;;;;;20.93;12.27;;;4.00;1.00;;;;;;5094239;28;20523;-68
2023/04/05 01:55:27;;;;;;;20.27;11.87;;;3.90;1.00;;;;;;5092708;28;20195;-68
2023/04/05 01:57:55;;;;;;;18.80;11.20;;;4.00;1.00;;;;;;5093850;28;20204;-68
2023/04/05 02:00:21;;;;;;;18.47;11.87;;;3.90;1.00;;;;;;5094016;28;20650;-67
2023/04/05 02:02:46;;;;;;;19.50;11.67;;;3.90;1.00;;;;;;5093867;28;20172;-67
2023/04/05 02:05:12;;;;;;;18.87;11.87;;;4.00;1.00;;;;;;5093556;28;20179;-67
2023/04/05 02:07:38;;;;;;;24.67;12.60;;;4.00;1.00;;;;;;5093954;28;20179;-67
2023/04/05 02:10:04;;;;;;;21.13;11.70;;;4.00;1.00;;;;;;5093913;28;20164;-67
2023/04/05 02:12:30;;;;;;;19.97;11.37;;;3.90;1.20;;;;;;5093773;28;20174;-68
2023/04/05 02:14:57;;;;;;;20.30;11.93;;;3.80;5.60;;;;;;5093736;28;20538;-68
2023/04/05 02:17:23;;;;;;;22.07;12.33;;;3.70;6.00;;;;;;5093436;28;20204;-68
2023/04/05 02:19:51;;;;;;;20.03;11.83;;;3.80;6.90;;;;;;5093691;28;20209;-67
2023/04/05 02:22:17;;;;;;;15.10;11.40;;;3.80;6.50;;;;;;5093548;28;20172;-68
2023/04/05 02:24:43;;;;;;;18.97;12.53;;;3.80;5.00;;;;;;5093583;28;20691;-68
2023/04/05 02:27:11;;;;;;;18.67;12.07;;;3.80;4.10;;;;;;5093612;28;20172;-68
2023/04/05 02:29:37;;;;;;;27.40;12.40;;;3.80;7.70;;;;;;5093488;28;20214;-67
2023/04/05 02:32:03;;;;;;;22.10;12.63;;;3.80;11.80;;;;;;5093378;28;20651;-67
2023/04/05 02:34:30;;;;;;;18.23;12.33;;;3.70;14.50;;;;;;5092828;28;20172;-68
2023/04/05 02:36:55;;;;;;;22.60;12.83;;;3.60;18.40;;;;;;5093134;28;20224;-67
2023/04/05 02:39:21;;;;;;;18.33;12.07;;;3.60;21.30;;;;;;5093312;28;20691;-67
2023/04/05 02:41:47;;;;;;;18.83;12.37;;;3.60;24.30;;;;;;5093262;28;20646;-68
2023/04/05 02:44:12;;;;;;;24.67;13.47;;;3.50;28.10;;;;;;5092764;28;20532;-68
2023/04/05 02:46:41;;;;;;;20.53;12.23;;;3.50;32.80;;;;;;5092964;28;20164;-68
2023/04/05 02:49:06;;;;;;;19.27;11.80;;;3.50;32.00;;;;;;5092944;28;20840;-68
2023/04/05 02:51:35;;;;;;;23.00;13.93;;;3.50;36.30;;;;;;5093277;28;20166;-68
2023/04/05 02:54:02;;;;;;;21.67;13.03;;;3.50;41.30;;;;;;5093317;28;20172;-68
2023/04/05 02:56:28;;;;;;;20.27;13.40;;;3.50;39.40;;;;;;5093011;28;20179;-68
2023/04/05 02:58:54;;;;;;;25.93;13.40;;;3.50;40.00;;;;;;5093194;28;20523;-69
2023/04/05 03:01:21;;;;;;;25.00;14.37;;;3.50;40.90;;;;;;5093080;28;20229;-68
2023/04/05 03:03:46;;;;;;;20.40;12.80;;;3.50;40.40;;;;;;5092949;28;20186;-68
2023/04/05 03:06:12;;;;;;;22.70;13.13;;;3.50;42.30;;;;;;5093023;28;20172;-68
2023/04/05 03:08:42;;;;;;;23.83;13.70;;;3.40;41.10;;;;;;5093271;28;20200;-68
2023/04/05 03:11:11;;;;;;;20.90;12.73;;;3.30;42.80;;;;;;5093296;28;20164;-67
2023/04/05 03:13:40;;;;;;;38.17;14.73;;;3.30;48.20;;;;;;5092558;28;20254;-67
2023/04/05 03:16:06;;;;;;;22.80;13.50;;;3.30;52.50;;;;;;5092483;28;20213;-68
2023/04/05 03:18:31;;;;;;;26.37;13.60;;;3.30;54.30;;;;;;5092672;28;20211;-68
2023/04/05 03:20:58;;;;;;;22.17;13.70;;;3.20;57.60;;;;;;5092705;28;20175;-68
2023/04/05 03:23:29;;;;;;;21.00;13.53;;;3.20;60.40;;;;;;5092771;28;20168;-68
2023/04/05 03:25:58;;;;;;;23.50;14.43;;;3.30;61.90;;;;;;5093131;28;20207;-69
2023/04/05 03:28:25;;;;;;;22.03;14.03;;;3.30;61.00;;;;;;5092670;28;20176;-67
2023/04/05 03:30:51;;;;;;;31.53;14.30;;;3.20;61.70;;;;;;5092464;28;20180;-68
2023/04/05 03:33:18;;;;;;;24.47;14.67;;;3.10;63.70;;;;;;5092671;28;20168;-68
2023/04/05 03:35:44;;;;;;;27.67;14.40;;;3.10;68.20;;;;;;5092304;28;20213;-68
2023/04/05 03:38:09;;;;;;;29.33;13.10;;;3.00;72.40;;;;;;5092458;28;20215;-68
2023/04/05 03:40:38;;;;;;;26.80;14.33;;;3.00;75.40;;;;;;5092690;28;20168;-68
2023/04/05 03:43:03;;;;;;;24.23;14.50;;;2.90;77.20;;;;;;5092729;28;20175;-69
2023/04/05 03:45:29;;;;;;;29.87;14.53;;;3.00;81.40;;;;;;5092119;28;20175;-69
2023/04/05 03:47:55;;;;;;;24.93;14.10;;;2.90;81.40;;;;;;5092378;28;20194;-66
2023/04/05 03:50:25;;;;;;;24.07;14.00;;;2.90;83.10;;;;;;5092506;28;20723;-68
2023/04/05 03:52:51;;;;;;;22.17;13.80;;;2.80;81.90;;;;;;5092591;28;20168;-68
2023/04/05 03:55:17;;;;;;;29.00;14.47;;;2.80;83.10;;;;;;5092613;28;20171;-68
2023/04/05 03:57:43;;;;;;;22.90;13.33;;;2.70;84.00;;;;;;5095374;28;20208;-68
2023/04/05 04:00:13;;;;;;;27.27;14.93;;;2.70;87.00;;;;;;5095922;28;20176;-68
2023/04/05 04:02:46;;;;;;;22.93;14.10;;;2.70;88.00;;;;;;5094527;28;20172;-66
2023/04/05 04:05:13;;;;;;;22.00;14.27;;;2.70;89.40;;;;;;5095585;28;20633;-67
2023/04/05 04:07:40;;;;;;;25.93;15.00;;;2.70;89.90;;;;;;5095835;28;20176;-67
2023/04/05 04:10:09;;;;;;;26.47;14.83;;;2.70;88.70;;;;;;5095347;28;20640;-68
2023/04/05 04:12:35;;;;;;;24.37;14.57;;;2.60;89.00;;;;;;5095604;28;20168;-68
2023/04/05 04:15:01;;;;;;;22.47;14.20;;;2.60;88.80;;;;;;5095443;28;20628;-66
2023/04/05 04:17:31;;;;;;;23.47;14.30;;;2.60;90.20;;;;;;5095585;28;20563;-68
2023/04/05 04:19:57;;;;;;;29.40;16.03;;;2.70;90.10;;;;;;5095667;28;20175;-68
2023/04/05 04:22:32;;;;;;;24.97;14.70;;;2.80;87.90;;;;;;5095285;28;20246;-68
2023/04/05 04:25:03;;;;;;;27.17;14.50;;;2.70;82.70;;;;;;5095646;28;20171;-68
2023/04/05 04:27:34;;;;;;;26.27;14.97;;;2.70;82.80;;;;;;5095376;28;20160;-68
2023/04/05 04:30:03;;;;;;;26.57;15.57;;;2.70;78.40;;;;;;5093671;28;20565;-68
2023/04/05 04:35:19;;;;;;;30.13;15.27;;;2.80;70.40;;;;;;5095364;28;20202;-68
2023/04/05 04:37:46;;;;;;;25.00;15.37;;;2.70;65.70;;;;;;5095223;28;20258;-68
2023/04/05 04:40:18;;;;;;;24.87;15.03;;;2.70;64.80;;;;;;5094969;28;20635;-68
2023/04/05 04:42:47;;;;;;;36.03;15.90;;;2.70;62.50;;;;;;5095102;28;20171;-68
2023/04/05 04:45:16;;;;;;;32.77;15.40;;;2.70;62.00;;;;;;5094653;28;20168;-69
2023/04/05 04:47:42;;;;;;;25.10;15.10;;;2.70;65.60;;;;;;5093531;28;20565;-68
2023/04/05 04:50:09;;;;;;;28.70;15.10;;;2.60;69.50;;;;;;5094919;28;20199;-68
2023/04/05 04:52:35;;;;;;;27.00;16.27;;;2.60;74.30;;;;;;5093140;28;20662;-68
2023/04/05 04:55:04;;;;;;;35.13;15.73;;;2.70;77.10;;;;;;5094494;28;20196;-68
2023/04/05 04:57:33;;;;;;;34.63;15.93;;;2.70;75.40;;;;;;5094066;28;20219;-68
2023/04/05 04:59:58;;;;;;;33.53;17.03;;;2.70;77.60;;;;;;5094923;28;20251;-68
2023/04/05 05:02:25;;;;;;;30.80;16.47;;;2.70;78.40;;;;;;5094339;28;20708;-68
2023/04/05 05:04:51;;;;;;;32.60;16.50;;;2.70;81.80;;;;;;5094891;28;20217;-69
2023/04/05 05:07:21;;;;;;;31.03;16.83;;;2.80;83.70;;;;;;5093492;28;20177;-67
2023/04/05 05:09:51;;;;;;;36.30;16.90;;;2.90;83.40;;;;;;5093690;28;20172;-67
2023/04/05 05:12:17;;;;;;;37.63;15.87;;;2.90;85.30;;;;;;5094141;28;20746;-68
2023/04/05 05:14:43;;;;;;;39.30;17.20;;;2.80;90.20;;;;;;5093643;28;20172;-69
2023/04/05 05:17:08;;;;;;;38.37;17.70;;;2.80;92.70;;;;;;5094233;28;20211;-69
2023/04/05 05:19:34;;;;;;;37.47;17.10;;;2.80;94.00;;;;;;5093824;28;20172;-68
2023/04/05 05:22:00;;;;;;;37.23;17.00;;;2.80;95.50;;;;;;5094019;28;20646;-68
2023/04/05 05:24:26;;;;;;;39.23;16.90;;;2.90;95.80;;;;;;5093734;28;20230;-68
2023/04/05 05:26:52;;;;;;;32.00;16.13;;;3.00;96.30;;;;;;5093656;28;20246;-68
2023/04/05 05:29:18;;;;;;;40.83;17.50;;;3.20;97.10;;;;;;5093430;28;20183;-68
2023/04/05 05:31:44;;;;;;;44.67;16.73;;;3.40;95.10;;;;;;5093040;28;20176;-67
2023/04/05 05:34:10;;;;;;;40.73;16.73;;;3.50;88.80;;;;;;5093680;28;20175;-66
2023/04/05 05:36:36;;;;;;;50.90;17.63;;;3.60;99.90;;;;;;5093030;28;20215;-68
2023/04/05 05:39:04;;;;;;;39.70;16.73;;;3.70;99.90;;;;;;5093259;28;20199;-67
2023/04/05 05:41:33;;;;;;;42.93;19.93;;;3.70;99.90;;;;;;5089901;28;20176;-68
2023/04/05 05:43:59;;;;;;;47.50;19.00;;;3.90;99.90;;;;;;5093403;28;20234;-70
2023/04/05 05:46:27;;;;;;;43.60;18.23;;;4.00;99.90;;;;;;5093461;28;20476;-68
2023/04/05 05:48:53;;;;;;;37.63;17.47;;;4.00;99.90;;;;;;5093063;28;20693;-68
2023/04/05 05:51:18;;;;;;;35.97;17.57;;;4.40;99.90;;;;;;5092897;28;20196;-68
2023/04/05 05:53:44;;;;;;;46.43;16.03;;;5.40;99.90;;;;;;5092374;28;20267;-68
2023/04/05 05:56:10;;;;;;;41.87;16.90;;;6.60;99.90;;;;;;5092575;28;20168;-68
2023/04/05 05:58:38;;;;;;;31.63;15.37;;;7.80;1.00;;;;;;5092922;28;20210;-68
2023/04/05 06:01:06;;;;;;;37.10;16.13;;;9.10;1.00;;;;;;5093082;28;20168;-70
2023/04/05 06:03:32;;;;;;;32.63;16.00;;;10.20;1.00;;;;;;5092143;28;20191;-68
2023/04/05 06:05:58;;;;;;;29.47;15.07;;;11.50;99.90;;;;;;5092796;28;20250;-69
2023/04/05 06:08:26;;;;;;;34.73;14.37;;;12.60;96.70;;;;;;5092741;28;20168;-69
2023/04/05 06:10:52;;;;;;;35.00;16.23;;;13.20;93.80;;;;;;5091177;28;20195;-66
2023/04/05 06:13:19;;;;;;;41.33;16.97;;;14.10;92.30;;;;;;5092438;28;20176;-67
2023/04/05 06:15:46;;;;;;;39.67;17.27;;;15.10;89.90;;;;;;5092376;28;20473;-67
2023/04/05 06:18:12;;;;;;;33.83;16.73;;;15.80;85.40;;;;;;5092164;28;20773;-68
2023/04/05 06:20:39;;;;;;;40.50;16.80;;;16.70;81.90;;;;;;5088066;28;20262;-68
2023/04/05 06:23:08;;;;;;;35.67;16.03;;;17.00;75.80;;;;;;5095194;28;20176;-68
2023/04/05 06:25:34;;;;;;;32.07;16.10;;;17.30;73.20;;;;;;5089140;28;20179;-67
2023/04/05 06:28:02;;;;;;;40.60;17.20;;;17.90;69.90;;;;;;5088295;28;20300;-67
2023/04/05 06:30:27;;;;;;;35.03;16.30;;;17.90;67.20;;;;;;5089403;28;20635;-68
2023/04/05 06:32:53;;;;;;;34.78;16.13;;;17.80;65.80;;;;;;5090413;28;20175;-67
2023/04/05 06:35:20;;;;;;;37.78;15.43;;;18.00;64.90;;;;;;5090277;28;20171;-68
2023/04/05 06:37:46;;;;;;;29.70;15.85;;;18.50;63.10;;;;;;5094234;28;20294;-69
2023/04/05 06:40:14;;;;;;;38.85;16.90;;;18.90;60.30;;;;;;5088913;28;20211;-68
2023/04/05 06:42:43;;;;;;;30.83;16.90;;;18.70;59.40;;;;;;5091405;28;20225;-68
2023/04/05 06:45:09;;;;;;;34.05;16.08;;;19.00;58.80;;;;;;5091823;28;20175;-69
2023/04/05 06:47:36;;;;;;;34.17;17.15;;;19.60;57.20;;;;;;5090478;28;20298;-68
2023/04/05 06:50:03;;;;;;;32.95;17.63;;;19.80;56.20;;;;;;5091432;28;20278;-69
2023/04/05 06:52:29;;;;;;;38.58;18.17;;;20.20;54.70;;;;;;5090850;28;20266;-70
2023/04/05 06:54:57;;;;;;;36.03;17.88;;;21.00;53.20;;;;;;5091210;28;20285;-69
2023/04/05 06:57:23;;;;;;;35.10;16.38;;;21.20;51.40;;;;;;5089447;28;20208;-69
2023/04/05 06:59:50;;;;;;;42.33;17.42;;;21.70;50.20;;;;;;5100071;28;20176;-69
2023/04/05 07:02:15;;;;;;;32.75;16.38;;;21.50;49.00;;;;;;5091377;28;20519;-68
2023/04/05 07:04:41;;;;;;;36.72;16.15;;;21.40;48.80;;;;;;5091042;28;20251;-70
2023/04/05 07:07:06;;;;;;;30.30;15.13;;;21.00;49.00;;;;;;5091271;28;20182;-70
2023/04/05 07:09:32;;;;;;;37.20;15.93;;;20.80;49.30;;;;;;5090206;28;20168;-68
2023/04/05 07:12:01;;;;;;;30.15;14.30;;;21.20;48.20;;;;;;5091254;28;20178;-71
2023/04/05 07:14:34;;;;;;;26.50;14.73;;;20.40;48.20;;;;;;5091733;28;20656;-70
2023/04/05 07:17:00;;;;;;;31.70;15.30;;;21.70;48.50;;;;;;5074567;28;20256;-71
2023/04/05 07:19:26;;;;;;;29.70;15.75;;;22.10;46.50;;;;;;5091667;28;20168;-70
2023/04/05 07:21:52;;;;;;;33.38;14.80;;;22.20;45.60;;;;;;5089547;28;20172;-70
2023/04/05 07:24:18;;;;;;;39.65;15.75;;;22.10;45.70;;;;;;5091118;28;20197;-70
2023/04/05 07:26:44;;;;;;;27.90;14.68;;;22.80;44.80;;;;;;5091005;28;20627;-69
2023/04/05 07:29:11;;;;;;;32.40;15.07;;;23.00;43.80;;;;;;5090989;28;20172;-70
2023/04/05 07:31:40;;;;;;;32.15;14.52;;;23.30;42.80;;;;;;5095660;28;20172;-70
2023/04/05 07:34:06;;;;;;;27.88;13.90;;;23.80;41.60;;;;;;5096140;28;20308;-70
2023/04/05 07:36:32;;;;;;;30.02;14.93;;;24.80;40.00;;;;;;5094354;28;20315;-70
2023/04/05 07:38:59;;;;;;;25.65;13.98;;;25.40;38.60;;;;;;5095195;28;20180;-70
2023/04/05 07:41:26;;;;;;;25.60;14.40;;;25.40;36.40;;;;;;5094873;28;20172;-70
2023/04/05 07:43:52;;;;;;;24.33;13.27;;;25.60;35.40;;;;;;5095373;28;20179;-70
2023/04/05 07:46:18;;;;;;;24.67;13.70;;;25.10;34.90;;;;;;5095570;28;20180;-70
2023/04/05 07:48:47;;;;;;;25.85;13.73;;;25.20;34.60;;;;;;5094944;28;20690;-75
2023/04/05 07:51:13;;;;;;;22.23;13.55;;;25.20;33.80;;;;;;5095065;28;20172;-76
2023/04/05 07:53:39;;;;;;;23.20;12.68;;;24.90;33.50;;;;;;5094774;28;20241;-75
2023/04/05 07:56:15;;;;;;;18.45;12.60;;;25.50;32.20;;;;;;5094854;28;20231;-74
2023/04/05 07:58:40;;;;;;;21.70;12.32;;;25.90;30.70;;;;;;5094923;28;20210;-75
2023/04/05 08:01:07;;;;;;;23.00;12.48;;;26.10;29.60;;;;;;5094937;28;20175;-77
2023/04/05 08:03:34;;;;;;;15.70;11.80;;;25.80;29.50;;;;;;5094830;28;20229;-75
2023/04/05 08:06:13;;;;;;;19.02;11.52;;;26.30;28.40;;;;;;5085611;28;20179;-76
2023/04/05 08:08:40;;;;;;;16.50;12.13;;;26.60;27.40;;;;;;5089934;28;20202;-76
2023/04/05 08:11:06;;;;;;;23.02;11.13;;;26.50;27.30;;;;;;5094135;28;20180;-78
2023/04/05 08:13:32;;;;;;;19.77;12.50;;;26.80;26.70;;;;;;5088006;28;20172;-78
2023/04/05 08:15:59;;;;;;;18.73;11.55;;;26.90;26.10;;;;;;5094402;28;20263;-77
2023/04/05 08:18:25;;;;;;;14.82;12.05;;;26.80;25.60;;;;;;5094033;28;20204;-78
2023/04/05 08:20:53;;;;;;;17.23;10.32;;;27.00;24.00;;;;;;5095273;28;20241;-77
2023/04/05 08:23:18;;;;;;;13.18;9.45;;;27.00;24.30;;;;;;5095465;28;20711;-76
2023/04/05 08:25:47;;;;;;;18.90;10.07;;;26.50;23.30;;;;;;5094855;28;20196;-80
2023/04/05 08:28:13;;;;;;;13.82;9.43;;;26.70;23.20;;;;;;5094672;28;20172;-76
2023/04/05 08:30:39;;;;;;;8.52;7.65;;;26.70;22.10;;;;;;5094742;28;20170;-77
2023/04/05 08:33:06;;;;;;;8.02;7.30;;;25.80;21.40;;;;;;5093327;28;20286;-80
2023/04/05 08:35:32;;;;;;;8.60;7.70;;;24.80;21.40;;;;;;5094848;28;20553;-79
2023/04/05 08:37:57;;;;;;;8.88;7.97;;;24.80;22.00;;;;;;5094594;28;20253;-78
2023/04/05 08:40:43;;;;;;;10.23;8.00;;;24.90;21.90;;;;;;5094609;28;20175;-79
2023/04/05 08:43:18;;;;;;;9.65;8.27;;;25.20;21.20;;;;;;5094051;28;20262;-78
2023/04/05 08:45:50;;;;;;;11.50;8.55;;;24.60;21.50;;;;;;5094801;28;20197;-77
2023/04/05 08:48:16;;;;;;;9.32;8.10;;;22.00;22.30;;;;;;5094139;28;20679;-78
2023/04/05 08:50:48;;;;;;;10.35;7.82;;;22.20;23.30;;;;;;5094016;28;20259;-79
2023/04/05 08:53:13;;;;;;;11.35;9.32;;;23.40;23.00;;;;;;5093978;28;20176;-75
2023/04/05 08:55:39;;;;;;;12.57;8.90;;;22.70;22.80;;;;;;5094098;28;20504;-76
2023/04/05 08:58:12;;;;;;;12.48;8.40;;;20.80;24.00;;;;;;5093789;28;20251;-77
2023/04/05 09:00:43;;;;;;;9.82;8.05;;;21.30;24.60;;;;;;5094199;28;20631;-77
2023/04/05 09:03:18;;;;;;;10.05;8.45;;;22.00;24.00;;;;;;5094515;28;20255;-75
2023/04/05 09:05:47;;;;;;;13.00;8.75;;;22.20;23.40;;;;;;5093084;28;20657;-78
2023/04/05 09:08:13;;;;;;;9.93;8.07;;;22.40;23.90;;;;;;5093353;28;20172;-78
2023/04/05 09:10:39;;;;;;;11.65;8.65;;;22.20;23.70;;;;;;5091936;28;20241;-78
2023/04/05 09:13:05;;;;;;;9.75;8.75;;;22.20;23.50;;;;;;5092018;28;20172;-77
2023/04/05 09:15:33;;;;;;;9.20;8.05;;;22.90;23.50;;;;;;5092462;28;20247;-76
2023/04/05 09:18:01;;;;;;;9.57;8.02;;;22.70;23.00;;;;;;5093087;28;20200;-75
2023/04/05 09:20:26;;;;;;;8.68;7.88;;;22.20;23.20;;;;;;5092826;28;20255;-76
2023/04/05 09:22:55;;;;;;;10.15;8.93;;;21.60;23.80;;;;;;5093059;28;20211;-76
2023/04/05 09:25:41;;;;;;;11.00;9.38;;;22.30;23.50;;;;;;5093561;28;20172;-76
2023/04/05 09:28:08;;;;;;;12.15;8.95;;;23.10;23.60;;;;;;5093408;28;20201;-76
2023/04/05 09:30:35;;;;;;;13.30;9.27;;;24.00;22.90;;;;;;5092510;28;20168;-75
2023/04/05 09:33:02;;;;;;;11.27;9.45;;;22.30;22.50;;;;;;5092968;28;20172;-76
2023/04/05 09:35:30;;;;;;;12.75;9.70;;;21.70;24.10;;;;;;5092743;28;20216;-75
2023/04/05 09:37:57;;;;;;;10.45;9.52;;;22.20;24.00;;;;;;5091519;28;20290;-77
2023/04/05 09:40:38;;;;;;;12.20;9.43;;;23.20;23.90;;;;;;5098147;28;20172;-76
2023/04/05 09:43:07;;;;;;;10.43;9.27;;;24.40;23.20;;;;;;5093488;28;20197;-75
2023/04/05 09:45:40;;;;;;;10.75;9.65;;;23.80;22.20;;;;;;5091995;28;20183;-74
2023/04/05 09:48:06;;;;;;;10.13;9.13;;;21.60;23.10;;;;;;5092211;28;20194;-74
2023/04/05 09:50:32;;;;;;;10.18;8.70;;;20.00;25.00;;;;;;5091979;28;20533;-74
2023/04/05 09:53:19;;;;;;;13.38;9.57;;;20.70;25.00;;;;;;5090313;28;20168;-74
2023/04/05 09:55:47;;;;;;;14.50;10.25;;;22.70;24.80;;;;;;5090429;28;20204;-74
2023/04/05 09:58:18;;;;;;;9.68;8.88;;;23.30;23.80;;;;;;5092092;28;20239;-75
2023/04/05 10:00:52;;;;;;;11.88;9.18;;;23.10;23.00;;;;;;5091933;28;20168;-74
2023/04/05 10:03:23;;;;;;;9.65;8.70;;;23.20;23.10;;;;;;5092255;28;20175;-73
2023/04/05 10:05:54;;;;;;;11.35;8.82;;;22.10;23.10;;;;;;5092526;28;20188;-73
2023/04/05 10:08:20;;;;;;;10.77;9.10;;;21.40;23.60;;;;;;5091925;28;20179;-73
2023/04/05 10:10:48;;;;;;;9.45;8.55;;;19.40;25.00;;;;;;5092747;28;20228;-74
2023/04/05 10:13:19;;;;;;;10.75;8.85;;;20.30;25.10;;;;;;5092605;28;20176;-73
2023/04/05 10:15:48;;;;;;;13.25;8.63;;;20.70;24.30;;;;;;5091964;28;20172;-74
2023/04/05 10:18:20;;;;;;;10.13;9.13;;;17.80;25.80;;;;;;5091012;28;20195;-73
2023/04/05 10:20:49;;;;;;;11.70;9.88;;;17.00;27.80;;;;;;5092043;28;20588;-73
2023/04/05 10:23:30;;;;;;;10.45;9.27;;;17.40;27.80;;;;;;5091501;28;20179;-74
2023/04/05 10:26:15;;;;;;;10.10;8.60;;;18.30;27.30;;;;;;5092785;28;20163;-74
2023/04/05 10:28:50;;;;;;;11.70;8.88;;;18.70;26.60;;;;;;5092408;28;20179;-73
2023/04/05 10:31:22;;;;;;;11.43;9.82;;;18.80;26.20;;;;;;5092188;28;20167;-72
2023/04/05 10:33:54;;;;;;;11.68;9.10;;;20.20;25.80;;;;;;5092665;28;20215;-73
2023/04/05 10:36:45;;;;;;;11.90;9.13;;;20.60;24.90;;;;;;5092232;28;20228;-74
2023/04/05 10:39:22;;;;;;;11.60;9.68;;;20.60;25.20;;;;;;5092566;28;20702;-74
2023/04/05 10:41:52;;;;;;;11.90;9.32;;;21.50;24.50;;;;;;5089329;28;20196;-73
2023/04/05 10:44:17;;;;;;;11.55;9.73;;;21.20;23.80;;;;;;5091393;28;20191;-72
2023/04/05 10:46:45;;;;;;;13.13;9.77;;;20.90;24.70;;;;;;5089983;28;20201;-73
2023/04/05 10:49:29;;;;;;;11.05;9.50;;;21.90;24.40;;;;;;5091841;28;20234;-73
2023/04/05 10:51:56;;;;;;;13.80;10.55;;;22.40;23.60;;;;;;5090952;28;20715;-75
2023/04/05 10:54:21;;;;;;;12.93;9.82;;;22.80;23.00;;;;;;5091249;28;20235;-72
2023/04/05 10:56:48;;;;;;;10.35;9.35;;;22.70;23.30;;;;;;5088567;28;20234;-73
2023/04/05 10:59:14;;;;;;;10.32;9.32;;;22.50;23.40;;;;;;5090858;28;20167;-73
2023/04/05 11:01:41;;;;;;;11.95;10.85;;;22.00;23.30;;;;;;5091225;28;20179;-73
2023/04/05 11:04:14;;;;;;;12.68;10.10;;;22.40;23.90;;;;;;5090591;28;20225;-74
2023/04/05 11:06:46;;;;;;;12.95;10.15;;;23.00;23.50;;;;;;5093581;28;20190;-73
2023/04/05 11:09:20;;;;;;;12.40;9.63;;;22.70;23.10;;;;;;5095141;28;20221;-75
2023/04/05 11:11:47;;;;;;;11.85;9.85;;;22.60;23.00;;;;;;5094330;28;20175;-75
2023/04/05 11:14:26;;;;;;;11.30;9.68;;;22.40;23.30;;;;;;5094335;28;20167;-75
2023/04/05 11:16:58;;;;;;;11.88;9.93;;;22.80;22.90;;;;;;5095047;28;20294;-76
2023/04/05 11:19:42;;;;;;;11.43;9.70;;;22.60;23.10;;;;;;5094597;28;20309;-75
2023/04/05 11:22:08;;;;;;;11.40;9.05;;;22.10;23.10;;;;;;5095711;28;20172;-75
2023/04/05 11:24:55;;;;;;;12.07;10.02;;;22.70;22.90;;;;;;5095221;28;20179;-76
2023/04/05 11:27:29;;;;;;;13.73;9.38;;;22.60;23.00;;;;;;5095092;28;20194;-75
2023/04/05 11:29:58;;;;;;;12.15;9.70;;;23.50;22.60;;;;;;5094432;28;20211;-75
2023/04/05 11:32:39;;;;;;;10.55;9.45;;;23.40;22.00;;;;;;5094452;28;20276;-72
2023/04/05 11:35:11;;;;;;;10.10;9.10;;;23.60;22.20;;;;;;5095053;28;20175;-72
2023/04/05 11:37:58;;;;;;;11.85;9.00;;;24.10;21.50;;;;;;5094313;28;20220;-74
2023/04/05 11:40:28;;;;;;;10.77;9.68;;;23.40;21.50;;;;;;5094298;28;20302;-75
2023/04/05 11:43:09;;;;;;;10.20;9.13;;;23.00;21.70;;;;;;5095385;28;20191;-74
2023/04/05 11:45:36;;;;;;;10.70;9.57;;;20.50;22.70;;;;;;5092622;28;20171;-76
2023/04/05 11:48:12;;;;;;;12.40;10.00;;;18.20;24.80;;;;;;5094829;28;20184;-76
2023/04/05 11:50:43;;;;;;;11.65;9.80;;;18.50;25.80;;;;;;5094239;28;20156;-77
2023/04/05 11:53:18;;;;;;;11.35;9.73;;;18.40;26.20;;;;;;5095534;28;20176;-76
2023/04/05 11:55:46;;;;;;;11.05;9.85;;;17.60;26.30;;;;;;5094492;28;20163;-73
2023/04/05 11:58:22;;;;;;;12.45;10.07;;;16.60;26.80;;;;;;5093752;28;20215;-73
2023/04/05 12:01:00;;;;;;;13.60;10.50;;;15.60;28.30;;;;;;5093155;28;20172;-77
2023/04/05 12:03:30;;;;;;;12.90;10.20;;;14.30;30.70;;;;;;5094553;28;20179;-76
2023/04/05 12:05:58;;;;;;;13.93;9.53;;;14.10;31.20;;;;;;5093468;28;20240;-77
2023/04/05 12:08:49;;;;;;;11.93;9.50;;;14.20;32.00;;;;;;5094516;28;20177;-75
2023/04/05 12:11:25;;;;;;;12.97;9.70;;;14.50;31.60;;;;;;5094690;28;20515;-72
2023/04/05 12:13:58;;;;;;;12.07;9.30;;;14.40;30.50;;;;;;5094291;28;20203;-76
2023/04/05 12:16:24;;;;;;;17.07;10.27;;;14.60;31.10;;;;;;5092953;28;20576;-76
2023/04/05 12:18:55;;;;;;;11.53;10.00;;;14.70;30.70;;;;;;5093976;28;20356;-77
2023/04/05 12:21:21;;;;;;;14.73;10.93;;;14.60;30.70;;;;;;5094152;28;20175;-75
2023/04/05 12:23:52;;;;;;;11.60;10.00;;;14.50;31.20;;;;;;5094328;28;20287;-74
2023/04/05 12:26:18;;;;;;;12.10;9.53;;;14.40;31.30;;;;;;5094343;28;20172;-75
2023/04/05 12:29:03;;;;;;;12.70;10.23;;;15.00;31.80;;;;;;5093406;28;20168;-74
2023/04/05 12:31:42;;;;;;;12.30;9.70;;;15.50;30.80;;;;;;5093871;28;20768;-75
2023/04/05 12:34:09;;;;;;;11.57;9.90;;;15.50;30.00;;;;;;5079485;28;20220;-77
2023/04/05 12:36:36;;;;;;;13.83;10.20;;;15.50;30.60;;;;;;5093379;28;20263;-77
2023/04/05 12:39:06;;;;;;;12.87;10.37;;;15.40;30.40;;;;;;5093955;28;20179;-75
2023/04/05 12:41:32;;;;;;;16.03;10.80;;;15.10;30.50;;;;;;5093867;28;20256;-77
2023/04/05 12:44:04;;;;;;;12.13;10.67;;;14.90;31.10;;;;;;5093585;28;20179;-75
2023/04/05 12:46:40;;;;;;;14.40;10.10;;;14.90;31.10;;;;;;5090585;28;20179;-74
2023/04/05 12:49:09;;;;;;;16.63;10.70;;;15.30;31.40;;;;;;5096641;28;20199;-78
2023/04/05 12:51:34;;;;;;;15.33;10.87;;;15.30;31.10;;;;;;5092567;28;20172;-76